Time;durP1;ratioP1;P1;durP2;ratioP2;P2;SDS_P1;SDS_P2;PMS_P1;PMS_P2;Temp;Humidity;BMP_temperature;BMP_pressure;BME280_temperature;BME280_humidity;BME280_pressure;Samples;Min_cycle;Max_cycle;Signal;HPM_P1;HPM_P2
2022/10/15 00:00:06;;;;;;;;;;;;;;;9.35;100.00;100610.03;5538262;32;34860;-69
2022/10/15 00:03:11;;;;;;;;;;;;;;;9.32;100.00;100608.53;5551357;32;34255;-69
2022/10/15 00:06:19;;;;;;;;;;;;;;;9.37;100.00;100618.66;5538137;32;34917;-69
2022/10/15 00:09:26;;;;;;;;;;;;;;;9.31;100.00;100612.16;5551489;32;34945;-69
2022/10/15 00:12:35;;;;;;;;;;;;;;;9.30;100.00;100612.31;5531287;32;34733;-69
2022/10/15 00:15:44;;;;;;;;;;;;;;;9.26;100.00;100605.66;5531022;32;34187;-69
2022/10/15 00:18:51;;;;;;;;;;;;;;;9.23;100.00;100611.28;5531827;32;34997;-69
2022/10/15 00:21:58;;;;;;;;;;;;;;;9.22;100.00;100614.91;5531012;32;34371;-68
2022/10/15 00:25:07;;;;;;;;;;;;;;;9.22;100.00;100607.81;5532260;32;34037;-68
2022/10/15 00:28:16;;;;;;;;;;;;;;;9.17;100.00;100610.06;5531533;32;34476;-68
2022/10/15 00:31:25;;;;;;;;;;;;;;;9.14;100.00;100605.09;5531741;32;34265;-68
2022/10/15 00:34:32;;;;;;;;;;;;;;;9.11;100.00;100605.38;5531694;32;34214;-69
2022/10/15 00:37:39;;;;;;;;;;;;;;;9.11;100.00;100610.69;5531679;32;34136;-69
2022/10/15 00:40:49;;;;;;;;;;;;;;;9.07;100.00;100601.38;5531730;32;34801;-68
2022/10/15 00:43:56;;;;;;;;;;;;;;;9.03;100.00;100594.75;5530603;32;34511;-69
2022/10/15 00:47:02;;;;;;;;;;;;;;;8.99;100.00;100599.50;5530587;32;34023;-69
2022/10/15 00:50:11;;;;;;;;;;;;;;;8.97;100.00;100605.94;5531616;32;34586;-69
2022/10/15 00:53:18;;;;;;;;;;;;;;;8.96;100.00;100599.78;5531534;32;34283;-69
2022/10/15 00:56:26;;;;;;;;;;;;;;;8.96;100.00;100588.38;5531614;32;34918;-68
2022/10/15 00:59:34;;;;;;;;;;;;;;;8.95;100.00;100590.22;5530737;32;34597;-68
2022/10/15 01:02:40;;;;;;;;;;;;;;;8.91;100.00;100580.06;5531527;32;34301;-69
2022/10/15 01:05:51;;;;;;;;;;;;;;;8.87;100.00;100579.53;5530359;32;34440;-69
2022/10/15 01:08:59;;;;;;;;;;;;;;;8.85;100.00;100576.25;5531353;32;34287;-70
2022/10/15 01:12:29;;;;;;;;;;;;;;;8.88;100.00;100578.56;5530013;32;34619;-70
2022/10/15 01:15:37;;;;;;;;;;;;;;;8.83;100.00;100572.91;5530495;32;34249;-69
2022/10/15 01:18:50;;;;;;;;;;;;;;;8.83;100.00;100582.66;5531290;32;34232;-69
2022/10/15 01:22:13;;;;;;;;;;;;;;;8.80;100.00;100582.97;5531256;32;34207;-69
2022/10/15 01:25:44;;;;;;;;;;;;;;;8.73;100.00;100580.91;5530484;32;34851;-69
2022/10/15 01:29:09;;;;;;;;;;;;;;;8.73;100.00;100578.28;5530957;32;34438;-69
2022/10/15 01:32:26;;;;;;;;;;;;;;;8.71;100.00;100577.56;5530977;32;34454;-70
2022/10/15 01:35:37;;;;;;;;;;;;;;;8.70;100.00;100577.75;5517984;32;34251;-69
2022/10/15 01:38:50;;;;;;;;;;;;;;;8.70;100.00;100588.31;5531089;32;34200;-69
2022/10/15 01:42:00;;;;;;;;;;;;;;;8.71;100.00;100580.22;5531024;32;34667;-69
2022/10/15 01:45:09;;;;;;;;;;;;;;;8.67;100.00;100576.22;5530891;32;34195;-70
2022/10/15 01:48:19;;;;;;;;;;;;;;;8.64;100.00;100567.75;5530898;32;34773;-70
2022/10/15 01:51:28;;;;;;;;;;;;;;;8.62;100.00;100565.25;5530935;32;34723;-69
2022/10/15 01:54:37;;;;;;;;;;;;;;;8.59;100.00;100570.03;5530794;32;34743;-69
2022/10/15 01:57:45;;;;;;;;;;;;;;;8.54;100.00;100567.00;5530711;32;34434;-69
2022/10/15 02:00:53;;;;;;;;;;;;;;;8.54;100.00;100567.00;5530732;32;34248;-70
2022/10/15 02:03:59;;;;;;;;;;;;;;;8.48;100.00;100573.72;5529686;32;35137;-70
2022/10/15 02:07:07;;;;;;;;;;;;;;;8.47;100.00;100564.09;5529819;32;35183;-69
2022/10/15 02:10:23;;;;;;;;;;;;;;;8.43;100.00;100561.91;5529730;32;34712;-70
2022/10/15 02:13:35;;;;;;;;;;;;;;;8.41;100.00;100575.31;5530361;32;34260;-69
2022/10/15 02:16:45;;;;;;;;;;;;;;;8.38;100.00;100572.94;5530401;32;34324;-69
2022/10/15 02:19:59;;;;;;;;;;;;;;;8.38;100.00;100586.16;5530284;32;34726;-69
2022/10/15 02:23:10;;;;;;;;;;;;;;;8.37;100.00;100581.88;5517188;32;34098;-70
2022/10/15 02:26:19;;;;;;;;;;;;;;;8.35;100.00;100565.31;5530274;32;34788;-69
2022/10/15 02:29:30;;;;;;;;;;;;;;;8.34;100.00;100576.88;5530091;32;34870;-69
2022/10/15 02:32:37;;;;;;;;;;;;;;;8.31;100.00;100563.97;5530142;32;34537;-70
2022/10/15 02:35:45;;;;;;;;;;;;;;;8.29;100.00;100556.16;5529941;32;34534;-70
2022/10/15 02:38:54;;;;;;;;;;;;;;;8.29;100.00;100561.47;5529024;32;34311;-69
2022/10/15 02:42:00;;;;;;;;;;;;;;;8.28;100.00;100554.47;5529202;32;34324;-69
2022/10/15 02:45:08;;;;;;;;;;;;;;;8.26;100.00;100568.81;5532162;32;34095;-70
2022/10/15 02:48:16;;;;;;;;;;;;;;;8.22;100.00;100559.53;5532653;32;34879;-69
2022/10/15 02:51:24;;;;;;;;;;;;;;;8.22;100.00;100559.53;5531901;32;34115;-70
2022/10/15 02:54:28;;;;;;;;;;;;;;;8.21;100.00;100566.63;5532582;32;34721;-70
2022/10/15 02:57:36;;;;;;;;;;;;;;;8.22;100.00;100562.19;5532602;32;34924;-69
2022/10/15 03:00:44;;;;;;;;;;;;;;;8.24;100.00;100552.28;5533013;32;34365;-70
2022/10/15 03:03:50;;;;;;;;;;;;;;;8.22;100.00;100541.87;5532349;32;34250;-70
2022/10/15 03:06:58;;;;;;;;;;;;;;;8.29;100.00;100545.59;5532436;32;35097;-70
2022/10/15 03:10:07;;;;;;;;;;;;;;;8.24;100.00;100544.34;5532465;32;34287;-70
2022/10/15 03:13:16;;;;;;;;;;;;;;;8.20;100.00;100541.19;5551098;32;34234;-70
2022/10/15 03:16:22;;;;;;;;;;;;;;;8.17;100.00;100556.50;5551688;32;34856;-69
2022/10/15 03:19:30;;;;;;;;;;;;;;;8.20;100.00;100556.19;5537677;32;35524;-69
2022/10/15 03:22:37;;;;;;;;;;;;;;;8.21;100.00;100548.13;5551712;32;34969;-70
2022/10/15 03:25:47;;;;;;;;;;;;;;;8.19;100.00;100544.78;5537609;32;34863;-69
2022/10/15 03:28:57;;;;;;;;;;;;;;;8.17;100.00;100541.47;5551661;32;34895;-70
2022/10/15 03:32:05;;;;;;;;;;;;;;;8.16;100.00;100538.97;5551642;32;34205;-70
2022/10/15 03:35:14;;;;;;;;;;;;;;;8.14;100.00;100530.34;5551484;32;34403;-70
2022/10/15 03:38:22;;;;;;;;;;;;;;;8.12;100.00;100550.81;5538676;32;35079;-70
2022/10/15 03:41:30;;;;;;;;;;;;;;;8.09;100.00;100551.09;5551529;32;34358;-70
2022/10/15 03:44:37;;;;;;;;;;;;;;;8.07;100.00;100555.72;5551485;32;34376;-70
2022/10/15 03:47:46;;;;;;;;;;;;;;;8.04;100.00;100553.34;5537714;32;34354;-70
2022/10/15 03:50:53;;;;;;;;;;;;;;;8.03;100.00;100559.63;5551411;32;34443;-71
2022/10/15 03:53:59;;;;;;;;;;;;;;;8.03;100.00;100559.63;5537112;32;33430;-70
2022/10/15 03:57:10;;;;;;;;;;;;;;;7.99;100.00;100556.44;5550915;32;34219;-70
2022/10/15 04:00:17;;;;;;;;;;;;;;;7.97;100.00;100563.69;5551366;32;34370;-70
2022/10/15 04:03:26;;;;;;;;;;;;;;;7.94;100.00;100563.97;5551395;32;34876;-71
2022/10/15 04:06:34;;;;;;;;;;;;;;;7.93;100.00;100561.50;5527580;32;779230;-71
2022/10/15 04:09:44;;;;;;;;;;;;;;;7.91;100.00;100547.59;5551199;32;35174;-71
2022/10/15 04:12:58;;;;;;;;;;;;;;;7.89;100.00;100547.72;5551456;32;34948;-70
2022/10/15 04:16:04;;;;;;;;;;;;;;;7.89;100.00;100544.28;5551207;32;34896;-70
2022/10/15 04:19:13;;;;;;;;;;;;;;;7.84;100.00;100550.00;5551252;32;34364;-70
2022/10/15 04:22:22;;;;;;;;;;;;;;;7.83;100.00;100551.81;5551264;32;33906;-70
2022/10/15 04:25:28;;;;;;;;;;;;;;;7.86;100.00;100540.94;5551347;32;34943;-70
2022/10/15 04:28:36;;;;;;;;;;;;;;;7.81;100.00;100537.06;5551093;32;34325;-71
2022/10/15 04:31:43;;;;;;;;;;;;;;;7.80;100.00;100543.31;5537470;32;34170;-71
2022/10/15 04:34:50;;;;;;;;;;;;;;;7.77;100.00;100547.09;5551189;32;34503;-70
2022/10/15 04:38:00;;;;;;;;;;;;;;;7.75;100.00;100549.03;5551348;32;34254;-71
2022/10/15 04:41:14;;;;;;;;;;;;;;;7.78;100.00;100555.87;5551039;32;34434;-71
2022/10/15 04:44:21;;;;;;;;;;;;;;;7.71;100.00;100566.16;5550954;32;34930;-71
2022/10/15 04:47:28;;;;;;;;;;;;;;;7.68;100.00;100563.00;5537987;32;34800;-71
2022/10/15 04:50:33;;;;;;;;;;;;;;;7.66;100.00;100567.56;5537661;32;34720;-71
2022/10/15 04:53:54;;;;;;;;;;;;;;;7.66;100.00;100560.47;5536822;32;34210;-71
2022/10/15 04:56:58;;;;;;;;;;;;;;;7.71;100.00;100557.41;5551179;32;34712;-71
2022/10/15 05:00:03;;;;;;;;;;;;;;;7.81;100.00;100559.03;5550937;32;34729;-71
2022/10/15 05:03:09;;;;;;;;;;;;;;;7.79;100.00;100554.91;5550933;32;34247;-71
2022/10/15 05:06:18;;;;;;;;;;;;;;;7.83;100.00;100550.97;5550359;32;34647;-72
2022/10/15 05:09:22;;;;;;;;;;;;;;;7.86;100.00;100551.50;5550747;32;34293;-71
2022/10/15 05:12:27;;;;;;;;;;;;;;;7.90;100.00;100559.13;5536737;32;32995;-70
2022/10/15 05:15:31;;;;;;;;;;;;;;;7.93;100.00;100564.97;5550672;32;35018;-70
2022/10/15 05:18:37;;;;;;;;;;;;;;;8.00;100.00;100571.31;5550739;32;34359;-70
2022/10/15 05:21:42;;;;;;;;;;;;;;;8.03;100.00;100578.97;5536701;32;34458;-71
2022/10/15 05:24:48;;;;;;;;;;;;;;;8.08;100.00;100570.59;5550830;32;34936;-71
2022/10/15 05:27:54;;;;;;;;;;;;;;;8.14;100.00;100573.47;5536693;32;34748;-69
2022/10/15 05:31:05;;;;;;;;;;;;;;;8.19;100.00;100570.38;5550378;32;34261;-70
2022/10/15 05:34:11;;;;;;;;;;;;;;;8.19;100.00;100570.38;5550009;32;34771;-71
2022/10/15 05:37:16;;;;;;;;;;;;;;;8.23;100.00;100559.37;5536573;32;32941;-71
2022/10/15 05:40:19;;;;;;;;;;;;;;;8.27;100.00;100562.56;5536378;32;35132;-71
2022/10/15 05:43:27;;;;;;;;;;;;;;;8.34;100.00;100563.66;5537204;32;35124;-71
2022/10/15 05:46:32;;;;;;;;;;;;;;;8.41;100.00;100559.44;5550177;32;34974;-70
2022/10/15 05:49:37;;;;;;;;;;;;;;;8.47;100.00;100555.37;5549802;32;34995;-71
2022/10/15 05:52:42;;;;;;;;;;;;;;;8.53;100.00;100562.69;5536074;32;34523;-70
2022/10/15 05:55:47;;;;;;;;;;;;;;;8.53;100.00;100560.88;5536410;32;35029;-70
2022/10/15 05:58:51;;;;;;;;;;;;;;;8.50;100.00;100569.13;5550008;32;34667;-71
2022/10/15 06:01:57;;;;;;;;;;;;;;;8.47;100.00;100564.09;5549851;32;34322;-71
2022/10/15 06:05:01;;;;;;;;;;;;;;;8.49;100.00;100571.91;5549366;32;34325;-71
2022/10/15 06:08:05;;;;;;;;;;;;;;;8.51;100.00;100584.00;5549539;32;34902;-71
2022/10/15 06:11:09;;;;;;;;;;;;;;;8.62;100.00;100577.66;5549496;32;34982;-71
2022/10/15 06:14:13;;;;;;;;;;;;;;;8.67;100.00;100589.44;5549121;32;34559;-71
2022/10/15 06:17:18;;;;;;;;;;;;;;;8.86;100.00;100599.03;5535294;32;35165;-71
2022/10/15 06:20:25;;;;;;;;;;;;;;;8.94;100.00;100596.50;5551428;32;34936;-71
2022/10/15 06:23:29;;;;;;;;;;;;;;;9.31;100.00;100603.37;5538006;32;32968;-71
2022/10/15 06:26:32;;;;;;;;;;;;;;;9.51;100.00;100596.91;5538233;32;33954;-71
2022/10/15 06:29:36;;;;;;;;;;;;;;;9.65;100.00;100611.41;5551786;32;34206;-71
2022/10/15 06:32:50;;;;;;;;;;;;;;;9.79;100.00;100608.19;5538559;32;34685;-71
2022/10/15 06:35:54;;;;;;;;;;;;;;;9.99;100.00;100605.16;5551785;32;34371;-71
2022/10/15 06:38:58;;;;;;;;;;;;;;;10.01;100.00;100615.59;5538574;32;34259;-71
2022/10/15 06:42:01;;;;;;;;;;;;;;;10.06;100.00;100612.47;5538260;32;34705;-70
2022/10/15 06:45:12;;;;;;;;;;;;;;;10.15;100.00;100628.25;5537892;32;34659;-71
2022/10/15 06:48:20;;;;;;;;;;;;;;;10.39;100.00;100628.38;5551773;32;34344;-69
2022/10/15 06:51:24;;;;;;;;;;;;;;;10.38;100.00;100620.59;5538458;32;34765;-70
2022/10/15 06:54:29;;;;;;;;;;;;;;;10.44;100.00;100627.91;5538122;32;35029;-69
2022/10/15 06:57:33;;;;;;;;;;;;;;;10.63;100.00;100629.44;5538188;32;34406;-70
2022/10/15 07:00:38;;;;;;;;;;;;;;;10.63;100.00;100637.41;5551711;32;34665;-70
2022/10/15 07:03:41;;;;;;;;;;;;;;;10.65;100.00;100636.25;5551677;32;34296;-70
2022/10/15 07:06:46;;;;;;;;;;;;;;;10.74;100.00;100629.16;5551554;32;34867;-70
2022/10/15 07:09:54;;;;;;;;;;;;;;;10.98;100.00;100634.50;5552274;32;34663;-69
2022/10/15 07:13:00;;;;;;;;;;;;;;;11.15;100.00;100645.94;5537585;32;34327;-70
2022/10/15 07:16:07;;;;;;;;;;;;;;;11.14;100.00;100641.63;5537872;32;35144;-70
2022/10/15 07:19:12;;;;;;;;;;;;;;;11.13;100.00;100648.78;5537887;32;34528;-69
2022/10/15 07:22:17;;;;;;;;;;;;;;;11.23;100.00;100652.09;5551523;32;33217;-70
2022/10/15 07:25:21;;;;;;;;;;;;;;;11.39;100.00;100653.09;5537402;32;34803;-70
2022/10/15 07:28:25;;;;;;;;;;;;;;;11.88;100.00;100646.75;5551585;32;34681;-70
2022/10/15 07:31:32;;;;;;;;;;;;;;;12.55;100.00;100642.69;5551260;32;34237;-70
2022/10/15 07:34:38;;;;;;;;;;;;;;;12.94;100.00;100639.12;5551143;32;34791;-69
2022/10/15 07:37:42;;;;;;;;;;;;;;;13.12;100.00;100638.91;5551306;32;34967;-69
2022/10/15 07:40:49;;;;;;;;;;;;;;;14.20;100.00;100640.16;5551418;32;34526;-70
2022/10/15 07:43:57;;;;;;;;;;;;;;;15.63;90.33;100642.81;5551465;32;34327;-70
2022/10/15 07:47:03;;;;;;;;;;;;;;;16.14;84.98;100645.19;5551369;32;35103;-70
2022/10/15 07:50:08;;;;;;;;;;;;;;;16.29;82.58;100648.56;5551348;32;34363;-69
2022/10/15 07:53:15;;;;;;;;;;;;;;;16.15;82.72;100646.03;5551381;32;34393;-69
2022/10/15 07:56:28;;;;;;;;;;;;;;;16.60;82.20;100652.66;5537549;32;34064;-70
2022/10/15 07:59:35;;;;;;;;;;;;;;;17.94;72.54;100640.87;5551365;32;34230;-70
2022/10/15 08:02:41;;;;;;;;;;;;;;;18.77;69.55;100641.84;5551332;32;34177;-70
2022/10/15 08:05:52;;;;;;;;;;;;;;;19.41;67.16;100652.41;5537982;32;34944;-70
2022/10/15 08:08:57;;;;;;;;;;;;;;;18.71;67.69;100654.28;5551086;32;35032;-69
2022/10/15 08:12:06;;;;;;;;;;;;;;;18.69;66.55;100650.97;5550839;32;34153;-70
2022/10/15 08:15:10;;;;;;;;;;;;;;;19.04;66.01;100654.09;5551025;32;34302;-70
2022/10/15 08:18:14;;;;;;;;;;;;;;;19.16;65.54;100670.38;5551142;32;34454;-70
2022/10/15 08:21:19;;;;;;;;;;;;;;;19.14;65.40;100659.81;5551073;32;34971;-68
2022/10/15 08:24:23;;;;;;;;;;;;;;;19.12;63.93;100662.72;5550907;32;35008;-68
2022/10/15 08:27:29;;;;;;;;;;;;;;;17.35;70.95;100663.97;5550713;32;34433;-69
2022/10/15 08:30:37;;;;;;;;;;;;;;;16.57;77.58;100669.09;5537134;32;34277;-68
2022/10/15 08:33:46;;;;;;;;;;;;;;;15.81;80.20;100662.88;5550923;32;35502;-69
2022/10/15 08:36:52;;;;;;;;;;;;;;;15.43;84.62;100665.84;5550994;32;34453;-68
2022/10/15 08:39:58;;;;;;;;;;;;;;;15.16;86.39;100651.41;5537178;32;35224;-68
2022/10/15 08:43:04;;;;;;;;;;;;;;;15.03;88.89;100658.47;5550455;32;34936;-68
2022/10/15 08:46:10;;;;;;;;;;;;;;;14.76;90.58;100652.00;5537201;32;34149;-68
2022/10/15 08:49:20;;;;;;;;;;;;;;;14.96;88.32;100646.87;5536445;32;33320;-67
2022/10/15 08:52:44;;;;;;;;;;;;;;;14.85;90.40;100650.87;5550664;32;34907;-68
2022/10/15 08:55:52;;;;;;;;;;;;;;;14.72;92.90;100645.38;5536983;32;35278;-67
2022/10/15 08:59:16;;;;;;;;;;;;;;;14.65;90.43;100653.31;5550779;32;34860;-68
2022/10/15 09:02:24;;;;;;;;;;;;;;;14.74;89.28;100654.03;5550526;32;34946;-67
2022/10/15 09:05:31;;;;;;;;;;;;;;;15.01;87.77;100647.94;5549862;32;34011;-68
2022/10/15 09:08:40;;;;;;;;;;;;;;;15.11;85.87;100651.13;5536275;32;35119;-68
2022/10/15 09:12:03;;;;;;;;;;;;;;;15.24;85.50;100650.47;5536557;32;34281;-67
2022/10/15 09:15:11;;;;;;;;;;;;;;;15.38;83.35;100656.75;5550797;32;34546;-68
2022/10/15 09:18:20;;;;;;;;;;;;;;;15.43;84.40;100657.84;5550517;32;34293;-67
2022/10/15 09:21:25;;;;;;;;;;;;;;;15.65;82.50;100666.66;5536193;32;34140;-67
2022/10/15 09:24:29;;;;;;;;;;;;;;;15.71;81.11;100667.75;5536474;32;35034;-69
2022/10/15 09:27:37;;;;;;;;;;;;;;;15.90;79.48;100661.72;5537277;32;34801;-68
2022/10/15 09:30:46;;;;;;;;;;;;;;;15.93;80.99;100664.00;5550302;32;34152;-69
2022/10/15 09:33:56;;;;;;;;;;;;;;;15.98;79.45;100666.91;5550379;32;34284;-68
2022/10/15 09:37:06;;;;;;;;;;;;;;;16.18;78.47;100669.72;5550529;32;34196;-68
2022/10/15 09:40:20;;;;;;;;;;;;;;;16.27;79.00;100660.50;5550206;32;34624;-68
2022/10/15 09:43:33;;;;;;;;;;;;;;;16.27;79.04;100666.66;5535970;32;36741;-68
2022/10/15 09:46:47;;;;;;;;;;;;;;;16.06;78.37;100656.06;5550292;32;34322;-68
2022/10/15 09:49:53;;;;;;;;;;;;;;;16.08;78.91;100654.84;5549832;32;34113;-68
2022/10/15 09:52:58;;;;;;;;;;;;;;;16.22;79.26;100669.12;5548450;32;35049;-68
2022/10/15 09:56:02;;;;;;;;;;;;;;;16.27;79.86;100671.19;5549927;32;34700;-68
2022/10/15 09:59:14;;;;;;;;;;;;;;;16.35;77.51;100666.53;5549814;32;34358;-67
2022/10/15 10:02:21;;;;;;;;;;;;;;;16.35;76.98;100671.06;5536564;32;34326;-68
2022/10/15 10:05:31;;;;;;;;;;;;;;;16.37;76.28;100656.44;5549533;32;34737;-68
2022/10/15 10:08:46;;;;;;;;;;;;;;;16.45;77.60;100658.97;5535830;32;35246;-67
2022/10/15 10:11:58;;;;;;;;;;;;;;;16.50;77.06;100648.47;5549541;32;34172;-68
2022/10/15 10:15:04;;;;;;;;;;;;;;;16.62;76.76;100645.22;5536061;32;34609;-68
2022/10/15 10:18:18;;;;;;;;;;;;;;;16.86;75.25;100642.00;5535530;32;35162;-68
2022/10/15 10:21:25;;;;;;;;;;;;;;;16.97;76.47;100646.78;5549413;32;34260;-68
2022/10/15 10:24:33;;;;;;;;;;;;;;;17.32;74.50;100648.31;5535533;32;34623;-68
2022/10/15 10:27:44;;;;;;;;;;;;;;;17.42;74.31;100644.37;5549025;32;34352;-68
2022/10/15 10:30:49;;;;;;;;;;;;;;;17.50;72.99;100636.94;5535475;32;35424;-68
2022/10/15 10:33:54;;;;;;;;;;;;;;;17.48;73.82;100635.50;5549285;32;34227;-68
2022/10/15 10:37:02;;;;;;;;;;;;;;;18.22;70.37;100634.19;5549111;32;34735;-68
2022/10/15 10:40:19;;;;;;;;;;;;;;;18.11;67.98;100637.50;5549022;32;34657;-69
2022/10/15 10:43:27;;;;;;;;;;;;;;;18.47;65.65;100630.78;5549074;32;34962;-66
2022/10/15 10:46:31;;;;;;;;;;;;;;;18.23;65.13;100625.09;5535200;32;34332;-68
2022/10/15 10:49:39;;;;;;;;;;;;;;;18.52;65.11;100614.88;5548843;32;33616;-69
2022/10/15 10:52:46;;;;;;;;;;;;;;;18.99;63.79;100616.28;5522685;32;35841;-67
2022/10/15 10:55:55;;;;;;;;;;;;;;;19.02;62.00;100611.31;5548493;32;35133;-67
2022/10/15 10:59:12;;;;;;;;;;;;;;;18.73;63.33;100608.38;5547961;32;33855;-67
2022/10/15 11:02:18;;;;;;;;;;;;;;;18.75;63.36;100617.88;5548683;32;34848;-68
2022/10/15 11:05:26;;;;;;;;;;;;;;;18.90;62.74;100609.50;5550349;32;34673;-67
2022/10/15 11:08:52;;;;;;;;;;;;;;;18.93;62.51;100606.37;5525642;32;34438;-67
2022/10/15 11:12:06;;;;;;;;;;;;;;;19.56;60.91;100606.37;5551202;32;34943;-68
2022/10/15 11:15:12;;;;;;;;;;;;;;;19.84;58.80;100607.53;5537807;32;33367;-67
2022/10/15 11:18:34;;;;;;;;;;;;;;;19.48;59.19;100597.53;5551690;32;34279;-67
2022/10/15 11:21:42;;;;;;;;;;;;;;;19.48;58.72;100594.00;5551479;32;34912;-68
2022/10/15 11:24:59;;;;;;;;;;;;;;;19.46;57.49;100594.22;5536810;32;36474;-68
2022/10/15 11:28:12;;;;;;;;;;;;;;;19.91;58.47;100592.13;5536977;32;35499;-68
2022/10/15 11:31:25;;;;;;;;;;;;;;;19.86;57.22;100586.59;5537524;32;32746;-67
2022/10/15 11:34:35;;;;;;;;;;;;;;;19.65;58.24;100570.88;5537400;32;34826;-67
2022/10/15 11:37:45;;;;;;;;;;;;;;;19.55;58.30;100561.66;5551233;32;34907;-68
2022/10/15 11:41:00;;;;;;;;;;;;;;;19.61;59.12;100561.56;5537345;32;34727;-67
2022/10/15 11:44:23;;;;;;;;;;;;;;;19.64;56.76;100550.38;5551118;32;34922;-67
2022/10/15 11:47:29;;;;;;;;;;;;;;;19.39;56.85;100546.88;5538122;32;34983;-68
2022/10/15 11:50:41;;;;;;;;;;;;;;;19.40;57.56;100551.22;5551267;32;34946;-69
2022/10/15 11:53:56;;;;;;;;;;;;;;;19.61;56.60;100556.19;5551375;32;34870;-68
2022/10/15 11:57:01;;;;;;;;;;;;;;;19.58;57.13;100553.13;5537642;32;35287;-68
2022/10/15 12:00:11;;;;;;;;;;;;;;;19.60;56.80;100545.66;5538144;32;35060;-68
2022/10/15 12:03:23;;;;;;;;;;;;;;;19.77;57.44;100550.25;5551301;32;34520;-68
2022/10/15 12:06:35;;;;;;;;;;;;;;;19.87;55.88;100550.53;5551146;32;34931;-67
2022/10/15 12:09:44;;;;;;;;;;;;;;;19.96;58.45;100538.41;5537888;32;34278;-67
2022/10/15 12:13:18;;;;;;;;;;;;;;;19.65;56.42;100548.53;5551004;32;34906;-68
2022/10/15 12:16:39;;;;;;;;;;;;;;;19.78;56.55;100543.00;5535754;32;34410;-67
2022/10/15 12:19:49;;;;;;;;;;;;;;;20.47;55.52;100530.97;5537153;32;33012;-67
2022/10/15 12:22:56;;;;;;;;;;;;;;;20.15;54.79;100535.72;5537565;32;32726;-67
2022/10/15 12:26:22;;;;;;;;;;;;;;;20.17;54.37;100537.12;5551076;32;34260;-67
2022/10/15 12:29:30;;;;;;;;;;;;;;;19.75;55.72;100538.84;5536661;32;34079;-66
2022/10/15 12:32:41;;;;;;;;;;;;;;;19.64;55.42;100528.84;5550579;32;35144;-66
2022/10/15 12:35:53;;;;;;;;;;;;;;;19.68;56.37;100531.91;5550873;32;34421;-67
2022/10/15 12:39:00;;;;;;;;;;;;;;;19.84;56.26;100528.63;5550970;32;34874;-67
2022/10/15 12:42:29;;;;;;;;;;;;;;;19.32;57.08;100530.78;5537218;32;33875;-67
2022/10/15 12:45:39;;;;;;;;;;;;;;;19.47;56.21;100536.66;5536753;32;34387;-67
2022/10/15 12:48:52;;;;;;;;;;;;;;;19.33;56.17;100527.03;5550567;32;34797;-68
2022/10/15 12:52:00;;;;;;;;;;;;;;;19.55;55.81;100524.81;5550787;32;34267;-67
2022/10/15 12:55:23;;;;;;;;;;;;;;;19.36;56.14;100510.47;5550043;32;34952;-66
2022/10/15 12:58:35;;;;;;;;;;;;;;;19.21;55.97;100515.37;5550806;32;34123;-67
2022/10/15 13:01:42;;;;;;;;;;;;;;;19.22;55.45;100508.94;5524057;32;34487;-67
2022/10/15 13:04:50;;;;;;;;;;;;;;;19.13;55.69;100510.25;5536518;32;33732;-67
2022/10/15 13:07:56;;;;;;;;;;;;;;;19.63;55.65;100512.91;5524462;32;35127;-67
2022/10/15 13:11:00;;;;;;;;;;;;;;;19.90;53.82;100512.38;5537249;32;34278;-68
2022/10/15 13:14:25;;;;;;;;;;;;;;;19.86;55.16;100519.28;5536449;32;34808;-66
2022/10/15 13:17:30;;;;;;;;;;;;;;;19.50;54.98;100519.28;5536587;32;34266;-67
2022/10/15 13:20:40;;;;;;;;;;;;;;;18.99;56.78;100524.84;5525441;32;34419;-67
2022/10/15 13:23:50;;;;;;;;;;;;;;;18.81;58.12;100514.03;5550749;32;34865;-66
2022/10/15 13:26:59;;;;;;;;;;;;;;;18.65;57.57;100521.59;5536516;32;35148;-67
2022/10/15 13:30:11;;;;;;;;;;;;;;;18.58;58.96;100517.31;5550248;32;34640;-67
2022/10/15 13:33:21;;;;;;;;;;;;;;;18.54;58.35;100511.53;5550236;32;34183;-66
2022/10/15 13:36:32;;;;;;;;;;;;;;;18.41;58.63;100516.13;5550056;32;34515;-67
2022/10/15 13:39:40;;;;;;;;;;;;;;;18.32;59.37;100514.72;5550017;32;34834;-67
2022/10/15 13:42:59;;;;;;;;;;;;;;;18.27;60.07;100520.75;5549926;32;34422;-67
2022/10/15 13:46:03;;;;;;;;;;;;;;;18.24;60.15;100522.03;5536618;32;34361;-67
2022/10/15 13:49:11;;;;;;;;;;;;;;;18.25;61.49;100522.81;5523550;32;35239;-66
2022/10/15 13:52:18;;;;;;;;;;;;;;;18.32;60.75;100528.16;5549430;32;34913;-66
2022/10/15 13:55:25;;;;;;;;;;;;;;;18.41;60.83;100525.00;5550154;32;34382;-66
2022/10/15 13:58:32;;;;;;;;;;;;;;;18.31;61.06;100526.50;5536546;32;34220;-66
2022/10/15 14:01:44;;;;;;;;;;;;;;;18.29;60.92;100517.88;5536154;32;34638;-66
2022/10/15 14:04:51;;;;;;;;;;;;;;;18.24;61.87;100519.34;5536251;32;34162;-66
2022/10/15 14:07:58;;;;;;;;;;;;;;;18.24;59.82;100527.38;5535836;32;33247;-66
2022/10/15 14:11:03;;;;;;;;;;;;;;;18.27;60.15;100525.28;5549581;32;35624;-66
2022/10/15 14:14:29;;;;;;;;;;;;;;;18.33;59.63;100524.44;5549037;32;34301;-66
2022/10/15 14:17:36;;;;;;;;;;;;;;;18.29;59.47;100521.38;5549596;32;34564;-66
2022/10/15 14:20:47;;;;;;;;;;;;;;;18.31;59.71;100513.09;5549461;32;34439;-66
2022/10/15 14:24:01;;;;;;;;;;;;;;;18.18;60.48;100504.06;5535427;32;34334;-66
2022/10/15 14:27:13;;;;;;;;;;;;;;;18.03;60.07;100508.88;5549297;32;34321;-65
2022/10/15 14:30:35;;;;;;;;;;;;;;;18.07;61.64;100511.97;5534814;32;36181;-67
2022/10/15 14:33:42;;;;;;;;;;;;;;;17.93;61.94;100505.00;5549468;32;34965;-67
2022/10/15 14:36:49;;;;;;;;;;;;;;;17.85;63.05;100506.06;5549583;32;35053;-67
2022/10/15 14:40:01;;;;;;;;;;;;;;;17.80;62.04;100508.56;5550194;32;34504;-66
2022/10/15 14:43:16;;;;;;;;;;;;;;;17.67;62.62;100497.87;5551900;32;34345;-67
2022/10/15 14:46:23;;;;;;;;;;;;;;;17.56;62.23;100502.00;5552057;32;34921;-67
2022/10/15 14:49:33;;;;;;;;;;;;;;;17.55;64.08;100496.84;5551910;32;34695;-67
2022/10/15 14:52:44;;;;;;;;;;;;;;;17.54;65.53;100497.87;5537890;32;34588;-67
2022/10/15 14:56:06;;;;;;;;;;;;;;;17.41;65.39;100497.91;5551631;32;34794;-67
2022/10/15 14:59:17;;;;;;;;;;;;;;;17.36;66.78;100493.16;5537841;32;35393;-67
2022/10/15 15:02:23;;;;;;;;;;;;;;;17.28;67.52;100498.75;5537682;32;35214;-66
2022/10/15 15:05:29;;;;;;;;;;;;;;;17.21;69.57;100501.44;5551770;32;34951;-67
2022/10/15 15:08:35;;;;;;;;;;;;;;;17.11;71.02;100503.72;5538026;32;33921;-67
2022/10/15 15:11:41;;;;;;;;;;;;;;;16.99;69.48;100497.34;5524808;32;34834;-66
2022/10/15 15:14:48;;;;;;;;;;;;;;;16.92;69.00;100505.37;5551491;32;34289;-67
2022/10/15 15:17:54;;;;;;;;;;;;;;;16.89;71.17;100513.00;5525186;32;34560;-67
2022/10/15 15:21:01;;;;;;;;;;;;;;;16.87;68.78;100515.06;5537945;32;34279;-67
2022/10/15 15:24:08;;;;;;;;;;;;;;;16.87;70.85;100515.88;5537718;32;34208;-67
2022/10/15 15:27:30;;;;;;;;;;;;;;;16.74;71.68;100517.72;5551503;32;35066;-66
2022/10/15 15:30:38;;;;;;;;;;;;;;;16.75;72.77;100522.84;5537518;32;34050;-67
2022/10/15 15:33:44;;;;;;;;;;;;;;;16.64;72.78;100510.09;5550661;32;34923;-68
2022/10/15 15:36:52;;;;;;;;;;;;;;;16.59;73.90;100517.91;5537288;32;35556;-67
2022/10/15 15:40:00;;;;;;;;;;;;;;;16.63;72.66;100515.63;5551413;32;34217;-67
2022/10/15 15:43:08;;;;;;;;;;;;;;;16.66;69.47;100515.22;5551369;32;34560;-67
2022/10/15 15:46:18;;;;;;;;;;;;;;;16.58;70.30;100516.25;5538129;32;34275;-67
2022/10/15 15:49:24;;;;;;;;;;;;;;;16.66;69.81;100521.41;5537207;32;35333;-67
2022/10/15 15:52:30;;;;;;;;;;;;;;;16.57;72.12;100519.91;5551193;32;34793;-67
2022/10/15 15:55:40;;;;;;;;;;;;;;;16.47;71.39;100511.44;5537175;32;34264;-67
2022/10/15 15:58:49;;;;;;;;;;;;;;;16.45;71.93;100521.56;5550839;32;34728;-67
2022/10/15 16:01:53;;;;;;;;;;;;;;;16.39;72.07;100517.84;5537500;32;35520;-67
2022/10/15 16:05:01;;;;;;;;;;;;;;;16.44;71.44;100526.09;5551055;32;34943;-67
2022/10/15 16:08:07;;;;;;;;;;;;;;;16.41;72.59;100533.72;5550905;32;34948;-67